Time;durP1;ratioP1;P1;durP2;ratioP2;P2;SDS_P1;SDS_P2;PMS_P1;PMS_P2;Temp;Humidity;BMP_temperature;BMP_pressure;BME280_temperature;BME280_humidity;BME280_pressure;Samples;Min_cycle;Max_cycle;Signal;HPM_P1;HPM_P2
2022/09/30 00:00:16;;;;;;;11.75;10.45;;;;;;;14.47;100.00;98968.98;1769887;81;20160;-73
2022/09/30 00:02:42;;;;;;;14.33;10.43;;;;;;;14.45;100.00;98970.09;1751328;81;21058;-73
2022/09/30 00:05:09;;;;;;;12.47;10.30;;;;;;;14.49;100.00;98962.06;1751076;81;21063;-73
2022/09/30 00:07:35;;;;;;;11.83;10.58;;;;;;;14.54;100.00;98961.93;1749718;79;21026;-73
2022/09/30 00:10:06;;;;;;;14.33;10.78;;;;;;;14.52;100.00;98961.45;1750502;80;21108;-73
2022/09/30 00:12:33;;;;;;;14.45;10.58;;;;;;;14.52;100.00;98961.45;1750668;79;21022;-73
2022/09/30 00:14:59;;;;;;;12.88;9.98;;;;;;;14.56;100.00;98964.37;1763969;79;21025;-73
2022/09/30 00:17:27;;;;;;;15.63;10.00;;;;;;;14.60;100.00;98969.44;1769855;79;20963;-73
2022/09/30 00:19:54;;;;;;;11.48;9.68;;;;;;;14.63;100.00;98972.94;1747528;79;22272;-73
2022/09/30 00:22:20;;;;;;;12.50;9.40;;;;;;;14.67;100.00;98975.26;1789196;79;21039;-73
2022/09/30 00:24:47;;;;;;;12.07;9.48;;;;;;;14.73;100.00;98972.64;1763899;79;21362;-73
2022/09/30 00:27:17;;;;;;;12.90;9.10;;;;;;;14.78;100.00;98977.96;1773272;79;21027;-74
2022/09/30 00:29:44;;;;;;;14.98;9.03;;;;;;;14.82;100.00;98972.91;1753348;80;21047;-73
2022/09/30 00:32:10;;;;;;;11.78;9.70;;;;;;;14.85;100.00;98968.72;1706317;84;21029;-73
2022/09/30 00:34:36;;;;;;;12.70;9.18;;;;;;;14.86;100.00;98973.08;1754472;79;21027;-74
2022/09/30 00:37:02;;;;;;;;;;;;;;;14.83;100.00;98977.83;1763798;79;21070;-74
2022/09/30 00:39:29;;;;;;;11.75;8.88;;;;;;;14.82;100.00;98980.31;1756143;79;20128;-74
2022/09/30 00:41:57;;;;;;;;;;;;;;;14.78;100.00;98975.22;1783522;80;21119;-74
2022/09/30 00:44:54;;;;;;;11.22;8.43;;;;;;;14.79;100.00;98975.48;1779018;79;20120;-73
2022/09/30 00:47:25;;;;;;;;;;;;;;;14.77;100.00;98978.52;1754341;79;21043;-73
2022/09/30 00:49:51;;;;;;;11.75;7.87;;;;;;;14.78;100.00;98984.81;1760721;79;20128;-73
2022/09/30 00:52:18;;;;;;;9.73;7.62;;;;;;;14.75;100.00;98979.97;1745734;82;21046;-73
2022/09/30 00:54:45;;;;;;;10.03;7.35;;;;;;;14.77;100.00;98980.48;1764091;79;21098;-73
2022/09/30 00:57:11;;;;;;;9.48;7.28;;;;;;;14.78;100.00;98975.22;1757374;79;21043;-73
2022/09/30 00:59:45;;;;;;;9.65;7.45;;;;;;;14.82;100.00;98973.47;1767272;79;21752;-73
2022/09/30 01:02:13;;;;;;;9.38;6.92;;;;;;;14.82;100.00;98965.25;1781510;79;21500;-74
2022/09/30 01:04:40;;;;;;;8.73;6.08;;;;;;;14.87;100.00;98980.19;1772783;79;21114;-73
2022/09/30 01:07:07;;;;;;;8.78;6.80;;;;;;;14.87;100.00;98981.00;1768806;81;21035;-73
2022/09/30 01:09:35;;;;;;;8.45;6.40;;;;;;;14.88;100.00;98990.00;1741134;81;21121;-74
2022/09/30 01:12:13;;;;;;;9.10;6.17;;;;;;;14.87;100.00;98995.25;1740464;81;21117;-73
2022/09/30 01:14:41;;;;;;;8.05;5.78;;;;;;;14.86;100.00;98990.33;1738276;79;21133;-73
2022/09/30 01:17:29;;;;;;;;;;;;;;;14.83;100.00;98994.27;1746782;81;21058;-73
2022/09/30 01:20:06;;;;;;;8.43;6.25;;;;;;;14.81;100.00;98996.50;1754638;81;20169;-73
2022/09/30 01:22:57;;;;;;;9.83;6.20;;;;;;;14.68;100.00;98986.47;1736051;81;21019;-73
2022/09/30 01:26:03;;;;;;;8.95;5.40;;;;;;;14.66;100.00;98990.91;1751343;81;21086;-73
2022/09/30 01:28:55;;;;;;;7.45;5.53;;;;;;;14.62;100.00;98991.30;1732193;81;21062;-73
2022/09/30 01:32:03;;;;;;;8.65;5.72;;;;;;;14.60;100.00;98996.82;1739918;81;21637;-73
2022/09/30 01:34:45;;;;;;;7.50;5.33;;;;;;;14.57;100.00;98995.53;1743526;81;21023;-73
2022/09/30 01:37:34;;;;;;;8.70;5.40;;;;;;;14.55;100.00;99001.09;1755056;81;21181;-73
2022/09/30 01:40:21;;;;;;;7.53;5.10;;;;;;;14.52;100.00;99003.91;1742194;81;21084;-73
2022/09/30 01:43:00;;;;;;;;;;;;;;;14.51;100.00;98997.36;1738541;81;21014;-72
2022/09/30 01:45:43;;;;;;;9.23;4.85;;;;;;;14.49;100.00;98999.62;1749230;79;20440;-72
2022/09/30 01:48:24;;;;;;;7.80;4.80;;;;;;;14.41;100.00;99004.73;1746405;81;21374;-72
2022/09/30 01:51:07;;;;;;;6.53;4.40;;;;;;;14.42;100.00;99010.44;1739855;79;21087;-72
2022/09/30 01:53:56;;;;;;;7.30;4.92;;;;;;;14.44;100.00;99010.95;1736657;81;21580;-73
2022/09/30 01:56:32;;;;;;;7.25;4.42;;;;;;;14.45;100.00;99012.55;1716126;82;21071;-72
2022/09/30 01:59:15;;;;;;;6.20;4.47;;;;;;;14.45;100.00;99014.50;1728162;81;21030;-72
2022/09/30 02:02:01;;;;;;;7.72;4.83;;;;;;;14.45;100.00;99009.80;1746106;81;21597;-72
2022/09/30 02:04:35;;;;;;;6.05;4.45;;;;;;;14.47;100.00;99005.95;1727365;81;21732;-72
2022/09/30 02:07:06;;;;;;;8.45;4.70;;;;;;;14.47;100.00;99005.39;1729997;81;21113;-72
2022/09/30 02:09:43;;;;;;;7.05;4.40;;;;;;;14.45;100.00;99007.66;1754632;80;22301;-72
2022/09/30 02:12:13;;;;;;;7.10;4.75;;;;;;;14.44;100.00;99010.95;1763065;80;21023;-72
2022/09/30 02:14:44;;;;;;;7.10;4.65;;;;;;;14.44;100.00;99018.35;1761958;79;21026;-72
2022/09/30 02:17:29;;;;;;;7.12;4.60;;;;;;;14.42;100.00;99016.47;1764769;80;20999;-72
2022/09/30 02:20:00;;;;;;;7.45;4.58;;;;;;;14.43;100.00;99016.72;1776075;80;21520;-72
2022/09/30 02:22:33;;;;;;;6.83;4.65;;;;;;;14.42;100.00;99015.91;1770548;80;21565;-72
2022/09/30 02:25:02;;;;;;;8.08;5.00;;;;;;;14.40;100.00;99020.09;1770960;80;21048;-72
2022/09/30 02:27:41;;;;;;;6.67;4.53;;;;;;;14.37;100.00;99013.33;1773425;80;21047;-72
2022/09/30 02:30:08;;;;;;;7.00;4.55;;;;;;;14.36;100.00;99014.44;1759666;80;21094;-73
2022/09/30 02:32:40;;;;;;;6.90;4.75;;;;;;;14.34;100.00;99018.63;1757226;80;21965;-72
2022/09/30 02:35:10;;;;;;;6.53;4.40;;;;;;;14.33;100.00;99020.52;1764944;79;21082;-72
2022/09/30 02:37:40;;;;;;;8.05;4.80;;;;;;;14.33;100.00;99022.44;1778466;80;20979;-72
2022/09/30 02:40:18;;;;;;;8.45;4.83;;;;;;;14.31;100.00;99030.95;1780044;80;21068;-72
2022/09/30 02:42:45;;;;;;;8.83;4.75;;;;;;;14.30;100.00;99022.52;1783118;80;21007;-72
2022/09/30 02:45:15;;;;;;;7.78;4.55;;;;;;;14.27;100.00;99019.59;1747828;80;21086;-72
2022/09/30 02:47:47;;;;;;;9.40;5.17;;;;;;;14.25;100.00;99023.19;1754067;82;21015;-72
2022/09/30 02:50:34;;;;;;;6.58;4.83;;;;;;;14.23;100.00;99025.45;1766718;79;21154;-72
2022/09/30 02:53:08;;;;;;;9.38;4.95;;;;;;;14.19;100.00;99025.26;1772115;80;20992;-72
2022/09/30 02:56:09;;;;;;;7.22;5.10;;;;;;;14.18;100.00;99027.74;1759864;79;21086;-72
2022/09/30 02:58:38;;;;;;;8.20;5.28;;;;;;;14.18;100.00;99035.14;1771965;80;21058;-72
2022/09/30 03:01:14;;;;;;;6.20;4.42;;;;;;;14.17;100.00;99032.17;1770228;79;21070;-72
2022/09/30 03:03:59;;;;;;;8.20;5.20;;;;;;;14.15;100.00;99039.31;1761715;80;21054;-72
2022/09/30 03:06:26;;;;;;;6.55;4.70;;;;;;;14.18;100.00;99032.41;1762831;79;21153;-72
2022/09/30 03:08:53;;;;;;;8.20;5.12;;;;;;;14.19;100.00;99034.03;1771431;79;21083;-72
2022/09/30 03:11:23;;;;;;;6.25;5.17;;;;;;;14.18;100.00;99030.48;1754801;79;21412;-72
2022/09/30 03:14:37;;;;;;;11.38;5.05;;;;;;;14.16;100.00;99034.10;1739914;79;21124;-72
2022/09/30 03:17:40;;;;;;;8.68;5.00;;;;;;;14.14;100.00;99034.95;1764184;79;21083;-72
2022/09/30 03:20:22;;;;;;;7.97;5.22;;;;;;;14.08;100.00;99040.31;1708217;81;21086;-72
2022/09/30 03:23:05;;;;;;;6.12;4.87;;;;;;;14.05;100.00;99045.05;1743342;79;21368;-72
2022/09/30 03:25:40;;;;;;;7.50;4.87;;;;;;;14.03;100.00;99043.75;1753736;81;21634;-72
2022/09/30 03:28:29;;;;;;;7.05;4.17;;;;;;;14.02;100.00;99034.73;1690509;85;21070;-72
2022/09/30 03:31:26;;;;;;;7.20;4.60;;;;;;;14.03;100.00;99036.91;1755855;81;21098;-72
2022/09/30 03:34:00;;;;;;;9.95;4.97;;;;;;;14.05;100.00;99046.41;1768005;79;21087;-72
2022/09/30 03:37:01;;;;;;;7.87;5.55;;;;;;;14.05;100.00;99049.15;1743697;80;21146;-72
2022/09/30 03:39:52;;;;;;;8.15;5.35;;;;;;;14.01;100.00;99045.41;1738929;82;21090;-73
2022/09/30 03:42:27;;;;;;;9.05;4.90;;;;;;;13.94;100.00;99056.80;1740540;79;21012;-72
2022/09/30 03:45:08;;;;;;;8.15;4.85;;;;;;;13.91;100.00;99056.61;1741790;81;21109;-72
2022/09/30 03:47:39;;;;;;;6.05;4.72;;;;;;;13.87;100.00;99063.26;1758876;81;21020;-72
2022/09/30 03:50:07;;;;;;;9.05;5.30;;;;;;;13.87;100.00;99061.89;1685779;83;22324;-72
2022/09/30 03:52:34;;;;;;;8.53;4.95;;;;;;;13.89;100.00;99069.22;1763999;79;21014;-72
2022/09/30 03:55:02;;;;;;;8.40;5.47;;;;;;;13.92;100.00;99079.53;1743708;81;21581;-72
2022/09/30 03:57:29;;;;;;;7.78;5.37;;;;;;;13.95;100.00;99090.45;1763474;79;20983;-71
2022/09/30 03:59:56;;;;;;;7.35;5.90;;;;;;;13.98;100.00;99091.74;1741302;79;21027;-72
2022/09/30 04:02:24;;;;;;;10.18;6.65;;;;;;;14.01;100.00;99092.48;1738592;82;21056;-72
2022/09/30 04:04:50;;;;;;;10.72;6.58;;;;;;;14.06;100.00;99092.38;1740071;81;21040;-72
2022/09/30 04:07:18;;;;;;;9.45;6.72;;;;;;;14.09;100.00;99091.76;1760754;81;21575;-73
2022/09/30 04:09:44;;;;;;;;;;;;;;;14.11;100.00;99097.16;1763277;79;21054;-72
2022/09/30 04:12:10;;;;;;;10.60;6.00;;;;;;;14.12;100.00;99098.79;1766700;80;20166;-72
2022/09/30 04:14:37;;;;;;;11.83;6.30;;;;;;;14.06;100.00;99100.59;1785260;80;21070;-72
2022/09/30 04:17:04;;;;;;;7.40;6.37;;;;;;;14.03;100.00;99096.52;1783864;79;21126;-72
2022/09/30 04:19:31;;;;;;;11.55;6.40;;;;;;;14.03;100.00;99106.11;1773043;79;21075;-72
2022/09/30 04:21:57;;;;;;;10.63;5.72;;;;;;;14.03;100.00;99107.47;1784218;80;21117;-72
2022/09/30 04:24:24;;;;;;;11.93;5.75;;;;;;;14.03;100.00;99102.59;1783267;79;21648;-72
2022/09/30 04:26:50;;;;;;;9.63;5.22;;;;;;;14.06;100.00;99101.96;1769286;79;21687;-72
2022/09/30 04:29:17;;;;;;;14.28;5.30;;;;;;;14.07;100.00;99104.38;1758652;79;22789;-72
2022/09/30 04:31:43;;;;;;;15.83;5.60;;;;;;;14.09;100.00;99106.26;1777299;79;21433;-73
2022/09/30 04:34:10;;;;;;;12.80;5.25;;;;;;;14.09;100.00;99095.31;1768203;79;21082;-72
2022/09/30 04:36:36;;;;;;;11.22;4.92;;;;;;;14.10;100.00;99105.12;1779402;79;21073;-72
2022/09/30 04:39:03;;;;;;;13.65;5.60;;;;;;;14.10;100.00;99116.06;1774777;79;21525;-72
2022/09/30 04:41:31;;;;;;;12.07;5.22;;;;;;;14.08;100.00;99116.95;1773370;79;21063;-72
2022/09/30 04:43:57;;;;;;;13.80;5.65;;;;;;;14.09;100.00;99128.70;1769248;79;21018;-71
2022/09/30 04:46:25;;;;;;;13.85;5.55;;;;;;;14.12;100.00;99145.32;1759567;79;21118;-72
2022/09/30 04:48:51;;;;;;;;;;;;;;;14.13;100.00;99128.34;1758709;80;21054;-72
2022/09/30 04:51:19;;;;;;;15.78;6.20;;;;;;;14.15;100.00;99123.36;1777888;79;20124;-72
2022/09/30 04:53:47;;;;;;;10.75;5.20;;;;;;;14.15;100.00;99126.09;1784932;80;21086;-72
2022/09/30 04:56:15;;;;;;;14.68;5.97;;;;;;;14.19;100.00;99127.09;1772101;79;21050;-72
2022/09/30 04:58:42;;;;;;;15.32;5.97;;;;;;;14.21;100.00;99131.13;1784580;80;21015;-72
2022/09/30 05:01:12;;;;;;;11.75;5.80;;;;;;;14.28;100.00;99127.96;1772328;79;21421;-74
2022/09/30 05:03:39;;;;;;;9.23;5.90;;;;;;;14.39;100.00;99132.92;1761790;79;21077;-73
2022/09/30 05:06:05;;;;;;;;;;;;;;;14.50;100.00;99134.03;1766300;80;21059;-73
2022/09/30 05:08:33;;;;;;;;;;;;;;;14.59;100.00;99128.06;1772357;79;20128;-73
2022/09/30 05:11:04;;;;;;;14.10;5.62;;;;;;;14.59;100.00;99130.25;1775053;79;20129;-73
2022/09/30 05:13:34;;;;;;;9.55;5.65;;;;;;;14.58;100.00;99130.55;1773144;80;21451;-73
2022/09/30 05:16:01;;;;;;;8.08;6.05;;;;;;;14.62;100.00;99128.81;1717065;82;21048;-73
2022/09/30 05:18:29;;;;;;;6.37;5.78;;;;;;;14.63;100.00;99133.17;1727316;81;20979;-73
2022/09/30 05:20:56;;;;;;;;;;;;;;;14.64;100.00;99144.36;1765207;79;21038;-73
2022/09/30 05:23:23;;;;;;;10.63;6.60;;;;;;;14.72;100.00;99146.35;1768175;79;20130;-73
2022/09/30 05:25:50;;;;;;;14.83;6.33;;;;;;;14.72;100.00;99155.94;1771159;81;21027;-73
2022/09/30 05:28:17;;;;;;;14.63;5.83;;;;;;;14.77;100.00;99164.05;1772825;79;21031;-70
2022/09/30 05:30:44;;;;;;;14.03;6.40;;;;;;;14.84;100.00;99172.63;1764634;79;22281;-69
2022/09/30 05:33:12;;;;;;;9.18;5.87;;;;;;;14.90;100.00;99172.73;1746780;81;21526;-74
2022/09/30 05:35:40;;;;;;;12.68;6.03;;;;;;;14.94;100.00;99175.11;1750722;79;21078;-74
2022/09/30 05:38:07;;;;;;;10.03;6.42;;;;;;;14.95;100.00;99188.47;1772804;81;21078;-74
2022/09/30 05:40:38;;;;;;;9.33;6.17;;;;;;;14.96;100.00;99193.40;1756648;79;21114;-73
2022/09/30 05:43:05;;;;;;;8.35;6.58;;;;;;;14.99;100.00;99189.22;1763975;79;21038;-73
2022/09/30 05:45:31;;;;;;;11.88;6.58;;;;;;;15.02;100.00;99190.77;1779339;79;21054;-72
2022/09/30 05:48:00;;;;;;;9.68;6.60;;;;;;;15.05;100.00;99200.31;1716452;82;21092;-73
2022/09/30 05:50:27;;;;;;;9.38;7.45;;;;;;;15.07;100.00;99195.31;1776769;79;21163;-73
2022/09/30 05:52:53;;;;;;;10.18;7.80;;;;;;;15.10;100.00;99192.75;1760502;79;21102;-73
2022/09/30 05:55:21;;;;;;;11.12;8.20;;;;;;;15.14;100.00;99188.83;1756896;79;21131;-69
2022/09/30 05:57:49;;;;;;;17.35;7.80;;;;;;;15.20;100.00;99187.00;1749160;79;21023;-69
2022/09/30 06:00:16;;;;;;;10.65;8.10;;;;;;;15.27;100.00;99199.69;1745910;81;21592;-71
2022/09/30 06:02:43;;;;;;;9.70;8.70;;;;;;;15.33;100.00;99207.23;1757789;79;21039;-71
2022/09/30 06:05:12;;;;;;;9.35;8.45;;;;;;;15.35;100.00;99211.83;1752708;79;21562;-70
2022/09/30 06:07:38;;;;;;;15.55;9.43;;;;;;;15.40;100.00;99216.63;1770513;80;21555;-70
2022/09/30 06:10:08;;;;;;;11.83;9.15;;;;;;;15.49;100.00;99204.90;1768161;80;21098;-73
2022/09/30 06:12:36;;;;;;;15.25;10.82;;;;;;;15.56;100.00;99201.14;1768212;79;20996;-72
2022/09/30 06:15:03;;;;;;;13.00;9.98;;;;;;;15.63;100.00;99206.97;1752486;80;21592;-73
2022/09/30 06:17:29;;;;;;;13.62;10.20;;;;;;;15.73;100.00;99214.35;1777615;81;20999;-72
2022/09/30 06:19:56;;;;;;;11.97;10.45;;;;;;;15.82;100.00;99211.65;1776389;80;20988;-72
2022/09/30 06:22:23;;;;;;;12.90;10.58;;;;;;;15.90;100.00;99203.45;1774216;79;21656;-72
2022/09/30 06:24:49;;;;;;;;;;;;;;;16.00;100.00;99209.19;1757319;79;22399;-72
2022/09/30 06:27:16;;;;;;;16.17;11.25;;;;;;;16.12;100.00;99212.70;1769606;81;20128;-73
2022/09/30 06:29:42;;;;;;;;;;;;;;;16.13;100.00;99219.22;1706114;84;21103;-73
2022/09/30 06:32:08;;;;;;;15.05;12.05;;;;;;;16.17;100.00;99216.08;1704315;84;20165;-73
2022/09/30 06:34:35;;;;;;;17.10;12.53;;;;;;;16.19;100.00;99219.30;1686384;84;21583;-74
2022/09/30 06:37:01;;;;;;;18.60;11.97;;;;;;;16.24;100.00;99221.09;1710937;84;21151;-73
2022/09/30 06:39:28;;;;;;;14.58;11.53;;;;;;;16.32;100.00;99218.38;1710959;84;21100;-70
2022/09/30 06:41:55;;;;;;;;;;;;;;;16.39;100.00;99222.01;1704423;83;21090;-70
2022/09/30 06:44:24;;;;;;;17.10;12.90;;;;;;;16.43;100.00;99222.98;1707853;82;20172;-70
2022/09/30 06:46:53;;;;;;;15.38;11.68;;;;;;;16.44;100.00;99222.64;1700173;83;21620;-70
2022/09/30 06:49:20;;;;;;;13.28;11.65;;;;;;;16.54;100.00;99222.09;1771247;81;21025;-74
2022/09/30 06:51:50;;;;;;;14.83;11.18;;;;;;;16.61;100.00;99224.64;1769542;81;21092;-74
2022/09/30 06:54:15;;;;;;;17.30;12.63;;;;;;;16.62;100.00;99214.43;1712827;83;21502;-74
2022/09/30 06:56:42;;;;;;;16.17;13.18;;;;;;;16.69;100.00;99224.37;1769497;81;21584;-74
2022/09/30 06:59:10;;;;;;;17.37;13.45;;;;;;;16.73;100.00;99228.09;1752813;81;20998;-73
2022/09/30 07:01:37;;;;;;;16.60;12.33;;;;;;;16.74;100.00;99229.15;1772200;79;21057;-74
2022/09/30 07:04:08;;;;;;;14.98;11.95;;;;;;;16.81;100.00;99235.53;1774099;79;20981;-73
2022/09/30 07:06:33;;;;;;;15.40;12.80;;;;;;;16.89;100.00;99234.72;1731085;80;21047;-74
2022/09/30 07:09:00;;;;;;;17.20;13.22;;;;;;;16.85;100.00;99237.88;1759890;79;20996;-74
2022/09/30 07:11:26;;;;;;;15.18;12.55;;;;;;;16.85;100.00;99240.63;1781474;80;21099;-75
2022/09/30 07:13:54;;;;;;;17.35;13.80;;;;;;;16.91;100.00;99244.81;1781124;79;21043;-75
2022/09/30 07:16:21;;;;;;;15.78;11.60;;;;;;;17.04;100.00;99252.66;1779961;79;21118;-76
2022/09/30 07:18:47;;;;;;;17.05;12.85;;;;;;;17.16;100.00;99259.09;1712405;84;21059;-76
2022/09/30 07:21:15;;;;;;;15.48;12.25;;;;;;;17.21;100.00;99256.75;1771795;80;21114;-76
2022/09/30 07:24:51;;;;;;;18.12;13.32;;;;;;;17.22;100.00;99247.34;1777283;79;23051;-75
2022/09/30 07:27:17;;;;;;;;;;;;;;;17.19;100.00;99255.69;1743808;82;21617;-72
2022/09/30 07:29:44;;;;;;;15.38;12.07;;;;;;;17.27;100.00;99259.56;1721450;82;20426;-73
2022/09/30 07:32:11;;;;;;;16.17;13.32;;;;;;;17.33;100.00;99267.87;1735548;82;21048;-71
2022/09/30 07:34:41;;;;;;;15.43;13.15;;;;;;;17.43;100.00;99263.39;1735439;82;21135;-71
2022/09/30 07:37:08;;;;;;;15.95;12.73;;;;;;;17.50;100.00;99269.78;1722101;82;21121;-71
2022/09/30 07:39:35;;;;;;;15.88;12.47;;;;;;;17.47;100.00;99263.53;1713072;82;21105;-72
2022/09/30 07:42:03;;;;;;;18.00;12.73;;;;;;;17.50;100.00;99265.66;1720543;83;21603;-72
2022/09/30 07:44:29;;;;;;;19.45;14.05;;;;;;;17.59;100.00;99274.71;1692338;83;21058;-72
2022/09/30 07:46:56;;;;;;;;;;;;;;;17.69;100.00;99278.48;1731119;82;21026;-72
2022/09/30 07:49:25;;;;;;;17.15;12.20;;;;;;;17.77;100.00;99276.27;1669258;83;20144;-73
2022/09/30 07:51:57;;;;;;;14.23;11.20;;;;;;;17.74;100.00;99271.43;1720631;82;21045;-74
2022/09/30 07:54:29;;;;;;;16.50;10.82;;;;;;;17.76;100.00;99271.89;1720911;83;21565;-74
2022/09/30 07:56:56;;;;;;;13.50;11.48;;;;;;;17.83;100.00;99274.38;1710775;82;21081;-74
2022/09/30 07:59:22;;;;;;;12.78;10.80;;;;;;;17.89;100.00;99276.36;1705355;84;21097;-74
2022/09/30 08:01:49;;;;;;;13.25;11.75;;;;;;;17.99;100.00;99285.66;1729964;82;21039;-74
2022/09/30 08:04:18;;;;;;;15.90;11.90;;;;;;;18.09;100.00;99286.66;1720323;83;21121;-74
2022/09/30 08:06:53;;;;;;;13.68;10.72;;;;;;;18.20;100.00;99290.65;1707442;82;21070;-74
2022/09/30 08:09:20;;;;;;;14.80;12.00;;;;;;;18.35;100.00;99290.65;1705415;84;21065;-71
2022/09/30 08:11:47;;;;;;;13.30;11.22;;;;;;;18.50;100.00;99283.72;1722374;82;21558;-75
2022/09/30 08:14:16;;;;;;;12.60;11.30;;;;;;;18.59;100.00;99288.65;1723913;81;21106;-72
2022/09/30 08:16:44;;;;;;;12.50;10.15;;;;;;;18.62;100.00;99290.73;1748877;82;20967;-73
2022/09/30 08:19:20;;;;;;;10.20;8.78;;;;;;;18.84;100.00;99291.22;1733854;82;21047;-74
2022/09/30 08:21:46;;;;;;;12.95;8.78;;;;;;;19.13;100.00;99293.65;1747537;82;20980;-73
2022/09/30 08:24:13;;;;;;;11.20;9.23;;;;;;;19.41;100.00;99287.80;1720203;82;21059;-71
2022/09/30 08:26:40;;;;;;;10.30;9.28;;;;;;;19.76;100.00;99300.64;1701772;82;21020;-72
2022/09/30 08:29:07;;;;;;;12.78;8.68;;;;;;;19.95;100.00;99289.83;1708010;84;21055;-71
2022/09/30 08:31:33;;;;;;;11.33;8.05;;;;;;;20.32;100.00;99291.48;1711896;82;21538;-72
2022/09/30 08:34:01;;;;;;;12.65;8.78;;;;;;;20.73;100.00;99301.44;1702549;82;21075;-72
2022/09/30 08:36:29;;;;;;;9.88;8.50;;;;;;;21.06;100.00;99292.12;1695566;82;21070;-72
2022/09/30 08:38:55;;;;;;;10.05;8.10;;;;;;;21.26;100.00;99294.71;1692563;85;21098;-73
2022/09/30 08:42:01;;;;;;;11.53;7.90;;;;;;;21.41;100.00;99293.72;1714764;82;21048;-73
2022/09/30 08:44:46;;;;;;;10.93;7.47;;;;;;;21.60;100.00;99294.66;1709479;82;22334;-69
2022/09/30 08:47:33;;;;;;;10.15;7.87;;;;;;;21.82;100.00;99291.87;1708020;84;20984;-71
2022/09/30 08:50:23;;;;;;;10.78;7.00;;;;;;;21.98;100.00;99293.28;1709683;82;21065;-70
2022/09/30 08:52:51;;;;;;;7.92;7.12;;;;;;;22.25;100.00;99291.78;1717647;82;21340;-70
2022/09/30 08:55:22;;;;;;;8.95;7.80;;;;;;;22.47;100.00;99292.28;1715148;82;20997;-70
2022/09/30 08:57:52;;;;;;;10.20;8.03;;;;;;;22.62;100.00;99288.09;1722522;82;21378;-70
2022/09/30 09:00:18;;;;;;;11.10;8.83;;;;;;;22.77;100.00;99289.24;1726834;82;21027;-71
2022/09/30 09:02:55;;;;;;;11.10;8.80;;;;;;;22.86;100.00;99283.47;1735192;82;21523;-71
2022/09/30 09:05:39;;;;;;;8.50;7.25;;;;;;;22.97;100.00;99288.66;1674285;84;21019;-71
2022/09/30 09:08:26;;;;;;;9.53;7.53;;;;;;;23.19;100.00;99297.08;1707508;84;21534;-71
2022/09/30 09:11:11;;;;;;;10.18;8.00;;;;;;;23.54;100.00;99294.80;1680052;84;21453;-72
2022/09/30 09:13:51;;;;;;;10.85;8.33;;;;;;;23.77;100.00;99289.47;1707244;82;21055;-69
2022/09/30 09:17:06;;;;;;;8.83;7.75;;;;;;;23.91;100.00;99281.18;1711144;82;21035;-69
2022/09/30 09:19:43;;;;;;;8.08;7.08;;;;;;;23.95;100.00;99277.27;1707785;84;21468;-70
2022/09/30 09:22:10;;;;;;;9.93;7.37;;;;;;;23.95;100.00;99280.05;1707469;84;21071;-70
2022/09/30 09:24:42;;;;;;;10.60;8.15;;;;;;;24.04;100.00;99275.05;1718859;82;21577;-71
2022/09/30 09:27:27;;;;;;;9.28;7.55;;;;;;;24.10;100.00;99275.53;1742833;82;21059;-71
2022/09/30 09:30:07;;;;;;;9.10;7.45;;;;;;;24.12;100.00;99267.63;1745049;82;21114;-70
2022/09/30 09:32:35;;;;;;;9.13;7.37;;;;;;;24.16;100.00;99269.30;1745353;82;21050;-68
2022/09/30 09:35:07;;;;;;;12.23;7.30;;;;;;;24.14;100.00;99265.30;1733703;82;21110;-70
2022/09/30 09:41:01;;;;;;;8.90;7.17;;;;;;;23.97;100.00;99257.45;1715263;82;21108;-71
2022/09/30 09:43:52;;;;;;;8.33;6.53;;;;;;;23.84;100.00;99257.44;1715394;83;21108;-70
2022/09/30 09:46:41;;;;;;;10.23;6.90;;;;;;;23.65;100.00;99261.87;1719657;82;21882;-70
2022/09/30 09:49:22;;;;;;;7.85;6.75;;;;;;;23.33;100.00;99266.59;1742150;82;21081;-70
2022/09/30 09:52:11;;;;;;;9.15;7.17;;;;;;;23.22;100.00;99275.52;1729218;82;21008;-71
2022/09/30 09:54:46;;;;;;;9.60;6.95;;;;;;;23.22;100.00;99274.70;1727704;82;21124;-71
2022/09/30 09:57:26;;;;;;;10.60;7.55;;;;;;;23.17;100.00;99279.16;1741801;82;21086;-71
2022/09/30 10:03:20;;;;;;;8.70;6.75;;;;;;;22.97;100.00;99280.34;1695794;84;21348;-69
2022/09/30 10:06:08;;;;;;;9.03;7.53;;;;;;;22.83;100.00;99276.68;1692584;84;21003;-69
2022/09/30 10:08:54;;;;;;;11.70;8.35;;;;;;;22.83;100.00;99277.27;1689252;84;21118;-69
2022/09/30 10:11:24;;;;;;;13.83;7.30;;;;;;;22.76;100.00;99280.69;1669310;84;21133;-69
2022/09/30 10:13:56;;;;;;;7.97;6.95;;;;;;;22.77;100.00;99283.11;1668642;86;21142;-70
2022/09/30 10:16:35;;;;;;;10.60;6.83;;;;;;;22.88;100.00;99279.77;1681157;84;21603;-70
2022/09/30 10:19:19;;;;;;;11.93;6.65;;;;;;;22.89;100.00;99272.44;1670852;84;21114;-71
2022/09/30 10:21:46;;;;;;;9.08;6.28;;;;;;;22.90;100.00;99273.25;1694208;84;21652;-70
2022/09/30 10:24:28;;;;;;;8.68;6.45;;;;;;;22.86;100.00;99275.95;1696714;83;21177;-70
2022/09/30 10:26:55;;;;;;;9.40;5.80;;;;;;;22.92;100.00;99278.64;1686390;84;21057;-71
2022/09/30 10:29:33;;;;;;;9.20;6.40;;;;;;;23.01;100.00;99279.83;1693486;84;22327;-70
2022/09/30 10:32:01;;;;;;;7.60;5.95;;;;;;;23.16;100.00;99283.94;1685844;84;21552;-71
2022/09/30 10:34:37;;;;;;;11.10;6.33;;;;;;;23.24;100.00;99283.46;1719871;83;21057;-72
2022/09/30 10:37:13;;;;;;;9.43;6.00;;;;;;;23.29;100.00;99285.37;1720094;83;21660;-71
2022/09/30 10:39:42;;;;;;;9.65;6.03;;;;;;;23.31;100.00;99279.47;1700686;82;21107;-71
2022/09/30 10:42:22;;;;;;;11.15;5.90;;;;;;;23.40;100.00;99280.61;1693437;84;22146;-70
2022/09/30 10:44:55;;;;;;;8.65;6.35;;;;;;;23.51;100.00;99290.79;1709988;82;21096;-72
2022/09/30 10:47:25;;;;;;;10.28;6.10;;;;;;;23.53;100.00;99280.09;1736920;82;21531;-71
2022/09/30 10:49:58;;;;;;;7.60;6.05;;;;;;;23.55;100.00;99286.11;1711653;82;21095;-71
2022/09/30 10:52:29;;;;;;;7.45;5.90;;;;;;;23.57;100.00;99292.66;1707665;84;21051;-72
2022/09/30 10:54:58;;;;;;;7.17;5.80;;;;;;;23.59;100.00;99291.14;1709354;82;21567;-69
2022/09/30 10:57:28;;;;;;;8.68;6.30;;;;;;;23.58;100.00;99294.28;1722490;82;21536;-69
2022/09/30 11:00:08;;;;;;;9.20;5.62;;;;;;;23.58;100.00;99299.26;1725711;82;21434;-69
2022/09/30 11:02:52;;;;;;;7.12;5.17;;;;;;;23.64;100.00;99297.77;1707644;83;21035;-69
2022/09/30 11:05:32;;;;;;;7.53;5.97;;;;;;;23.72;100.00;99299.52;1716126;82;21095;-71
2022/09/30 11:08:12;;;;;;;9.93;7.08;;;;;;;23.73;100.00;99296.16;1736966;82;21719;-71
2022/09/30 11:11:08;;;;;;;10.40;6.78;;;;;;;23.55;100.00;99288.08;1717676;82;21075;-71
2022/09/30 11:13:54;;;;;;;7.85;6.95;;;;;;;23.48;100.00;99301.83;1707165;84;21625;-70
2022/09/30 11:17:02;;;;;;;11.80;7.08;;;;;;;23.39;100.00;99295.08;1718236;82;21096;-71
2022/09/30 11:19:39;;;;;;;10.25;6.97;;;;;;;23.26;100.00;99289.47;1716688;82;21146;-70
2022/09/30 11:22:30;;;;;;;9.03;6.62;;;;;;;23.24;100.00;99298.16;1697305;82;21078;-70
2022/09/30 11:24:56;;;;;;;10.10;6.37;;;;;;;23.08;100.00;99302.99;1709734;82;21088;-71
2022/09/30 11:27:44;;;;;;;7.85;6.17;;;;;;;23.08;100.00;99302.99;1722508;83;21331;-71
2022/09/30 11:30:34;;;;;;;9.85;6.30;;;;;;;23.00;100.00;99305.39;1695070;82;21090;-70
2022/09/30 11:33:44;;;;;;;9.23;6.30;;;;;;;22.98;100.00;99309.70;1709653;82;21162;-71
2022/09/30 11:36:40;;;;;;;7.80;5.42;;;;;;;23.04;100.00;99324.31;1717278;82;21568;-72
2022/09/30 11:39:33;;;;;;;7.97;5.50;;;;;;;23.04;100.00;99320.16;1722181;82;21072;-71
2022/09/30 11:42:27;;;;;;;8.98;5.70;;;;;;;23.06;100.00;99321.19;1705050;82;21043;-69
2022/09/30 11:45:08;;;;;;;7.70;5.78;;;;;;;23.19;100.00;99322.65;1711098;82;21051;-69
2022/09/30 11:47:53;;;;;;;9.65;5.87;;;;;;;23.41;100.00;99308.06;1692873;84;21019;-71
2022/09/30 11:50:43;;;;;;;9.38;6.60;;;;;;;23.41;100.00;99308.06;1707382;82;20991;-71
2022/09/30 11:53:26;;;;;;;8.58;6.33;;;;;;;23.38;100.00;99305.98;1734157;82;21106;-71
2022/09/30 11:56:05;;;;;;;8.45;5.90;;;;;;;23.46;100.00;99313.88;1736688;82;21046;-71
2022/09/30 11:58:46;;;;;;;8.88;6.00;;;;;;;23.51;100.00;99315.79;1729658;82;21119;-71
2022/09/30 12:01:35;;;;;;;7.70;5.72;;;;;;;23.50;100.00;99318.34;1736583;82;21121;-71